Wetterdaten: aktuell Mittwoch, 01.04.2020 23:45
Datum Zeit Auentemp. Feuchte A. Luftdruck Niederschl. Wind Richtung Richtung Sonnenschein UV Windben
01.04.2020 23:45 -0,1 C 64 % 1017,1 hPa 0,0 l/m 0,0 km/h O-SO 115 0 min 0,0 UV-I 0,0 km/h
01.04.2020 22:45 1,2 C 58 % 1017,4 hPa 0,0 l/m 0,0 km/h O-SO 115 0 min 0,0 UV-I 0,0 km/h
01.04.2020 21:45 2,8 C 52 % 1017,5 hPa 0,0 l/m 0,0 km/h O-SO 116 0 min 0,0 UV-I 0,0 km/h
01.04.2020 20:45 4,2 C 48 % 1017,5 hPa 0,0 l/m 0,0 km/h O-SO 115 0 min 0,0 UV-I 0,0 km/h
01.04.2020 19:45 7,3 C 36 % 1017,5 hPa 0,0 l/m 0,0 km/h O-SO 116 50 min 0,0 UV-I 0,0 km/h
01.04.2020 18:45 8,7 C 30 % 1017,6 hPa 0,0 l/m 4,2 km/h O-SO 117 45 min 0,0 UV-I 6,4 km/h
01.04.2020 17:45 9,4 C 30 % 1017,9 hPa 0,0 l/m 4,5 km/h O-SO 102 55 min 0,6 UV-I 11,3 km/h
01.04.2020 16:45 9,4 C 31 % 1018,6 hPa 0,0 l/m 6,0 km/h O-SO 117 60 min 1,4 UV-I 14,5 km/h
01.04.2020 15:45 9,1 C 33 % 1019,2 hPa 0,0 l/m 8,7 km/h S-SO 163 60 min 2,3 UV-I 14,5 km/h
01.04.2020 14:45 8,2 C 37 % 1020,0 hPa 0,0 l/m 2,6 km/h O-SO 115 60 min 3,1 UV-I 11,3 km/h
01.04.2020 13:45 7,9 C 42 % 1020,9 hPa 0,0 l/m 4,7 km/h O 95 60 min 3,5 UV-I 12,9 km/h
01.04.2020 12:45 6,8 C 47 % 1021,9 hPa 0,0 l/m 6,0 km/h O 101 60 min 3,4 UV-I 16,1 km/h
01.04.2020 11:45 5,3 C 55 % 1022,6 hPa 0,0 l/m 4,9 km/h O 99 60 min 2,8 UV-I 14,5 km/h
01.04.2020 10:45 3,8 C 65 % 1023,2 hPa 0,0 l/m 4,5 km/h O-SO 109 60 min 1,9 UV-I 11,3 km/h
01.04.2020 09:45 2,1 C 71 % 1023,5 hPa 0,0 l/m 1,1 km/h O-NO 57 50 min 1,1 UV-I 6,4 km/h
01.04.2020 08:45 -2,4 C 77 % 1023,7 hPa 0,0 l/m 0,0 km/h N 360 0 min 0,0 UV-I 0,0 km/h
01.04.2020 07:45 -4,2 C 81 % 1023,8 hPa 0,0 l/m 0,0 km/h N 0 10 min 0,0 UV-I 0,0 km/h
01.04.2020 06:45 -4,3 C 80 % 1023,9 hPa 0,0 l/m 0,0 km/h N 0 0 min 0,0 UV-I 0,0 km/h
01.04.2020 05:45 -3,9 C 79 % 1024,1 hPa 0,0 l/m 0,0 km/h N 0 0 min 0,0 UV-I 0,0 km/h
01.04.2020 04:45 -3,3 C 77 % 1024,3 hPa 0,0 l/m 0,0 km/h N 0 0 min 0,0 UV-I 0,0 km/h
01.04.2020 03:45 -2,6 C 75 % 1024,8 hPa 0,0 l/m 0,0 km/h N 0 0 min 0,0 UV-I 0,0 km/h
01.04.2020 02:45 -2,4 C 76 % 1025,4 hPa 0,0 l/m 0,0 km/h N 0 0 min 0,0 UV-I 0,0 km/h
01.04.2020 01:45 -1,9 C 75 % 1025,9 hPa 0,0 l/m 0,0 km/h N 0 0 min 0,0 UV-I 0,0 km/h
01.04.2020 00:45 -1,7 C 75 % 1026,4 hPa 0,0 l/m 0,0 km/h N 0 0 min 0,0 UV-I 0,0 km/h
01.04.2020 00:00 -1,2 C 73 % 1026,9 hPa 0,0 l/m 0,0 km/h N 0 0 min 0,0 UV-I 0,0 km/h
_ Min-Zeit 07:15 18:20 23:45 - 23:45 - - - - 23:45
Minimum _ -4,6 C 29 % 1017,1 hPa - 0,0 km/h - - - - 0,0 km/h
_ Max-Zeit 16:20 07:55 00:10 23:45 13:05 - - 19:35 13:45 16:00
Maximum _ 9,9 C 81 % 1026,9 hPa 0,0 l/m 9,9 km/h
O
- - 5 min 3,5 UV-I 16,1 km/h
O-SO
Durchschnitt _ 2,5 C 58 % 1021,6 hPa #0,0 l/m 1,8 km/h O-SO - #10:30 h 2,2 UV-I 4,4 km/h